Jasper, Tennessee
Current Conditions -  °F | °C
As of 5:53 PM on Wednesday 22 Oct 2014 (Local Time) from KCHA Reporting Station
Clear Clear  
Wind Chill: 60°   Ceiling: Unl
Heat Index: 60°   Visibility: 10mi
Dew Point: 42°   Wind: 7mph
Humidity: 51%   Direction: 50°NE
Pressure: 30.15"   Gusts: NA
Location:  35.07°N, 85.63°W
Report Text: KCHA 222253Z 05006KT 10SM CLR 16/06 A3015 RMK AO2 SLP207 T01560056
Loading
Personal Weather Stations






























Interactive Weather Map
Tropical Storm Tracking
New forecast layout! Learn more

10-Day Weather Forecast

Advertisements
Track Severe Weather on mobile